createdAt,value
2018-04-29T00:00:28.977Z,12.40
2018-04-29T00:02:57.217Z,12.40
2018-04-29T00:05:26.222Z,12.20
2018-04-29T00:07:54.491Z,12.20
2018-04-29T00:10:22.752Z,12.20
2018-04-29T00:12:51.783Z,12.00
2018-04-29T00:15:20.057Z,12.00
2018-04-29T00:17:48.315Z,12.00
2018-04-29T00:20:16.586Z,12.00
2018-04-29T00:22:45.631Z,11.80
2018-04-29T00:25:13.870Z,11.80
2018-04-29T00:27:42.147Z,11.80
2018-04-29T00:30:10.418Z,11.80
2018-04-29T00:32:38.695Z,11.80
2018-04-29T00:35:06.994Z,12.00
2018-04-29T00:37:35.253Z,12.00
2018-04-29T00:40:03.570Z,11.90
2018-04-29T00:42:31.816Z,11.90
2018-04-29T00:45:00.106Z,11.90
2018-04-29T00:47:28.324Z,11.90
2018-04-29T00:49:56.573Z,11.90
2018-04-29T00:52:24.788Z,12.00
2018-04-29T00:54:53.037Z,11.90
2018-04-29T00:57:21.325Z,11.90
2018-04-29T00:59:49.563Z,11.70
2018-04-29T01:02:17.841Z,11.70
2018-04-29T01:04:46.087Z,11.60
2018-04-29T01:07:15.110Z,11.50
2018-04-29T01:09:44.079Z,11.60
2018-04-29T01:12:13.140Z,11.60
2018-04-29T01:14:41.389Z,11.60
2018-04-29T01:17:10.015Z,11.50
2018-04-29T01:19:38.262Z,11.40
2018-04-29T01:22:06.528Z,11.30
2018-04-29T01:24:34.767Z,11.20
2018-04-29T01:27:03.817Z,11.20
2018-04-29T01:29:32.065Z,11.10
2018-04-29T01:32:00.339Z,11.20
2018-04-29T01:34:28.587Z,11.10
2018-04-29T01:36:57.617Z,11.10
2018-04-29T01:39:25.872Z,11.10
2018-04-29T01:41:54.930Z,10.90
2018-04-29T01:44:23.151Z,10.90
2018-04-29T01:46:51.425Z,10.80
2018-04-29T01:49:19.688Z,10.70
2018-04-29T01:51:47.936Z,10.70
2018-04-29T01:54:16.208Z,10.60
2018-04-29T01:56:44.476Z,10.60
2018-04-29T01:59:12.756Z,10.60
2018-04-29T02:01:41.005Z,10.60
2018-04-29T02:04:09.250Z,10.50
2018-04-29T02:06:38.269Z,10.30
2018-04-29T02:09:06.529Z,10.30
2018-04-29T02:11:35.560Z,10.20
2018-04-29T02:14:03.819Z,10.20
2018-04-29T02:16:32.870Z,10.10
2018-04-29T02:19:01.121Z,10.00
2018-04-29T02:21:29.419Z,10.10
2018-04-29T02:23:57.624Z,10.20
2018-04-29T02:26:26.632Z,10.10
2018-04-29T02:28:54.914Z,10.10
2018-04-29T02:31:23.903Z,9.80
2018-04-29T02:33:52.949Z,9.70
2018-04-29T02:36:21.194Z,9.70
2018-04-29T02:38:49.428Z,9.70
2018-04-29T02:41:18.444Z,9.70
2018-04-29T02:43:46.759Z,9.70
2018-04-29T02:46:14.977Z,9.50
2018-04-29T02:48:44.040Z,9.40
2018-04-29T02:51:12.945Z,9.40
2018-04-29T02:53:41.717Z,9.40
2018-04-29T02:56:09.970Z,9.40
2018-04-29T02:58:38.251Z,9.40
2018-04-29T03:01:06.493Z,9.30
2018-04-29T03:03:35.526Z,9.40
2018-04-29T03:06:03.779Z,9.30
2018-04-29T03:08:32.805Z,9.20
2018-04-29T03:11:01.063Z,9.20
2018-04-29T03:13:29.324Z,9.10
2018-04-29T03:15:58.325Z,9.10
2018-04-29T03:18:26.622Z,9.00
2018-04-29T03:20:54.876Z,8.90
2018-04-29T03:23:23.168Z,8.90
2018-04-29T03:25:51.407Z,8.80
2018-04-29T03:28:19.665Z,8.80
2018-04-29T03:30:47.934Z,8.80
2018-04-29T03:33:16.180Z,8.80
2018-04-29T03:35:44.412Z,8.80
2018-04-29T03:38:12.649Z,8.70
2018-04-29T03:40:40.911Z,8.70
2018-04-29T03:43:09.151Z,8.70
2018-04-29T03:45:38.213Z,8.70
2018-04-29T03:48:06.473Z,8.70
2018-04-29T03:50:34.726Z,8.70
2018-04-29T03:53:03.724Z,8.50
2018-04-29T03:55:31.973Z,8.50
2018-04-29T03:58:12.223Z,8.60
2018-04-29T04:00:52.100Z,8.70
2018-04-29T04:06:24.908Z,8.80
2018-04-29T04:08:53.955Z,8.90
2018-04-29T04:11:22.167Z,8.90
2018-04-29T04:13:50.462Z,8.90
2018-04-29T04:16:18.672Z,8.90
2018-04-29T04:18:47.291Z,8.80
2018-04-29T04:21:15.478Z,8.80
2018-04-29T04:23:44.530Z,8.70
2018-04-29T04:26:12.752Z,8.70
2018-04-29T04:28:41.062Z,8.80
2018-04-29T04:31:10.032Z,8.80
2018-04-29T04:33:38.747Z,8.70
2018-04-29T04:36:06.985Z,8.70
2018-04-29T04:38:36.015Z,8.80
2018-04-29T04:41:04.259Z,8.80
2018-04-29T04:43:32.508Z,8.90
2018-04-29T04:46:00.753Z,9.10
2018-04-29T04:48:29.099Z,9.40
2018-04-29T04:50:58.096Z,11.00
2018-04-29T04:53:27.124Z,12.00
2018-04-29T04:55:55.400Z,12.00
2018-04-29T04:58:23.682Z,12.40
2018-04-29T05:00:51.936Z,12.40
2018-04-29T05:03:20.165Z,12.40
2018-04-29T05:05:48.424Z,12.20
2018-04-29T05:08:16.693Z,11.80
2018-04-29T05:10:44.959Z,11.50
2018-04-29T05:13:13.212Z,11.20
2018-04-29T05:15:42.232Z,11.00
2018-04-29T05:18:10.463Z,11.00
2018-04-29T05:20:38.720Z,11.00
2018-04-29T05:23:06.959Z,10.90
2018-04-29T05:25:35.232Z,10.90
2018-04-29T05:28:03.491Z,10.90
2018-04-29T05:30:32.315Z,11.00
2018-04-29T05:33:00.595Z,11.00
2018-04-29T05:35:28.903Z,11.00
2018-04-29T05:37:57.114Z,11.00
2018-04-29T05:40:26.113Z,11.10
2018-04-29T05:42:54.373Z,11.00
2018-04-29T05:45:22.620Z,11.10
2018-04-29T05:47:50.900Z,11.10
2018-04-29T05:50:19.211Z,11.00
2018-04-29T05:52:47.493Z,11.10
2018-04-29T05:55:15.758Z,11.10
2018-04-29T05:57:43.996Z,11.20
2018-04-29T06:00:12.273Z,11.30
2018-04-29T06:02:40.578Z,11.40
2018-04-29T06:05:08.836Z,11.50
2018-04-29T06:07:37.127Z,11.60
2018-04-29T06:10:05.393Z,11.80
2018-04-29T06:12:33.646Z,12.00
2018-04-29T06:15:01.905Z,12.10
2018-04-29T06:17:30.152Z,12.20
2018-04-29T06:19:59.205Z,12.40
2018-04-29T06:22:27.438Z,12.30
2018-04-29T06:24:55.703Z,12.60
2018-04-29T06:27:23.979Z,12.60
2018-04-29T06:29:52.211Z,12.60
2018-04-29T06:32:20.485Z,12.60
2018-04-29T06:34:48.720Z,12.70
2018-04-29T06:37:17.726Z,12.50
2018-04-29T06:39:46.741Z,12.50
2018-04-29T06:42:15.021Z,12.50
2018-04-29T06:44:43.278Z,12.70
2018-04-29T06:47:12.286Z,12.90
2018-04-29T06:49:40.553Z,12.80
2018-04-29T06:52:08.801Z,13.10
2018-04-29T06:54:37.845Z,13.50
2018-04-29T06:57:06.135Z,13.50
2018-04-29T06:59:34.373Z,13.80
2018-04-29T07:02:03.394Z,14.00
2018-04-29T07:04:31.653Z,14.00
2018-04-29T07:06:59.942Z,14.00
2018-04-29T07:09:28.219Z,14.10
2018-04-29T07:11:56.493Z,14.10
2018-04-29T07:14:25.514Z,14.00
2018-04-29T07:16:54.574Z,14.00
2018-04-29T07:19:22.843Z,14.10
2018-04-29T07:21:51.121Z,14.30
2018-04-29T07:24:20.174Z,14.60
2018-04-29T07:26:48.448Z,14.60
2018-04-29T07:29:17.507Z,15.10
2018-04-29T07:31:45.831Z,15.00
2018-04-29T07:34:14.051Z,15.20
2018-04-29T07:36:43.361Z,15.60
2018-04-29T07:39:12.404Z,15.90
2018-04-29T07:41:40.696Z,15.80
2018-04-29T07:44:08.977Z,15.90
2018-04-29T07:46:38.041Z,16.10
2018-04-29T07:49:06.271Z,16.10
2018-04-29T07:51:35.315Z,16.10
2018-04-29T07:54:03.595Z,16.10
2018-04-29T07:56:31.899Z,15.90
2018-04-29T07:59:00.148Z,16.00
2018-04-29T08:01:29.069Z,16.00
2018-04-29T08:03:58.486Z,16.00
2018-04-29T08:06:26.778Z,16.30
2018-04-29T08:08:55.064Z,16.20
2018-04-29T08:11:23.369Z,16.30
2018-04-29T08:13:51.901Z,16.10
2018-04-29T08:16:20.955Z,16.00
2018-04-29T08:18:49.259Z,16.00
2018-04-29T08:21:17.478Z,16.20
2018-04-29T08:23:45.854Z,16.20
2018-04-29T08:26:14.158Z,16.30
2018-04-29T08:28:42.434Z,16.30
2018-04-29T08:31:11.062Z,16.50
2018-04-29T08:33:39.352Z,16.50
2018-04-29T08:36:08.537Z,16.80
2018-04-29T08:38:36.787Z,16.80
2018-04-29T08:41:05.047Z,16.80
2018-04-29T08:43:33.341Z,16.70
2018-04-29T08:46:01.672Z,16.80
2018-04-29T08:48:29.966Z,16.80
2018-04-29T08:50:58.256Z,16.80
2018-04-29T08:53:26.693Z,16.90
2018-04-29T08:55:54.996Z,17.10
2018-04-29T08:58:25.232Z,17.20
2018-04-29T09:00:54.233Z,17.50
2018-04-29T09:03:22.506Z,17.40
2018-04-29T09:05:50.773Z,17.70
2018-04-29T09:08:19.893Z,17.80
2018-04-29T09:10:48.226Z,17.80
2018-04-29T09:13:16.811Z,18.00
2018-04-29T09:15:45.064Z,18.10
2018-04-29T09:18:13.345Z,18.10
2018-04-29T09:20:42.455Z,18.20
2018-04-29T09:23:10.732Z,18.20
2018-04-29T09:25:39.945Z,18.20
2018-04-29T09:28:08.281Z,18.20
2018-04-29T09:30:36.535Z,18.40
2018-04-29T09:33:06.064Z,18.40
2018-04-29T09:35:34.333Z,18.50
2018-04-29T09:38:02.670Z,18.50
2018-04-29T09:40:32.080Z,18.60
2018-04-29T09:43:01.217Z,18.70
2018-04-29T09:45:29.481Z,18.70
2018-04-29T09:47:58.112Z,18.60
2018-04-29T09:50:26.345Z,18.70
2018-04-29T09:52:55.224Z,18.70
2018-04-29T09:55:24.616Z,18.80
2018-04-29T09:57:53.017Z,18.80
2018-04-29T10:00:27.270Z,18.80
2018-04-29T10:03:03.397Z,18.70
2018-04-29T10:05:32.897Z,18.60
2018-04-29T10:08:01.246Z,18.40
2018-04-29T10:10:29.517Z,18.30
2018-04-29T10:12:57.887Z,18.20
2018-04-29T10:15:27.651Z,18.00
2018-04-29T10:17:55.943Z,18.00
2018-04-29T10:20:24.296Z,18.00
2018-04-29T10:22:53.421Z,18.20
2018-04-29T10:25:21.826Z,18.20
2018-04-29T10:27:50.193Z,18.10
2018-04-29T10:30:19.418Z,18.30
2018-04-29T10:32:48.970Z,18.00
2018-04-29T10:35:18.083Z,18.00
2018-04-29T10:37:46.449Z,18.00
2018-04-29T10:40:14.771Z,18.10
2018-04-29T10:42:43.865Z,17.90
2018-04-29T10:45:13.603Z,17.70
2018-04-29T10:47:42.763Z,17.60
2018-04-29T10:50:11.483Z,17.50
2018-04-29T10:52:39.801Z,17.40
2018-04-29T10:55:09.033Z,17.40
2018-04-29T10:57:38.276Z,17.80
2018-04-29T11:00:06.638Z,18.30
2018-04-29T11:02:36.822Z,19.10
2018-04-29T11:05:05.155Z,19.10
2018-04-29T11:07:35.179Z,19.50
2018-04-29T11:10:03.552Z,19.50
2018-04-29T11:12:32.668Z,19.60
2018-04-29T11:15:01.048Z,19.60
2018-04-29T11:17:29.328Z,19.80
2018-04-29T11:19:57.675Z,19.90
2018-04-29T11:22:26.119Z,20.00
2018-04-29T11:24:54.398Z,20.10
2018-04-29T11:27:22.711Z,20.20
2018-04-29T11:29:51.865Z,20.20
2018-04-29T11:32:21.097Z,20.20
2018-04-29T11:34:49.813Z,20.30
2018-04-29T11:37:19.120Z,20.50
2018-04-29T11:39:47.518Z,20.40
2018-04-29T11:42:15.772Z,20.50
2018-04-29T11:44:44.800Z,20.50
2018-04-29T11:47:14.280Z,20.50
2018-04-29T11:49:44.573Z,20.70
2018-04-29T11:52:12.870Z,20.70
2018-04-29T11:54:41.389Z,20.90
2018-04-29T11:57:10.020Z,21.10
2018-04-29T11:59:39.175Z,21.20
2018-04-29T12:02:09.343Z,21.30
2018-04-29T12:04:37.644Z,21.50
2018-04-29T12:07:06.012Z,21.60
2018-04-29T12:09:35.514Z,21.90
2018-04-29T12:12:03.883Z,21.90
2018-04-29T12:14:32.177Z,21.90
2018-04-29T12:17:01.616Z,22.10
2018-04-29T12:19:30.688Z,22.50
2018-04-29T12:21:59.841Z,22.50
2018-04-29T12:24:28.192Z,22.40
2018-04-29T12:26:57.268Z,22.40
2018-04-29T12:29:26.304Z,22.30
2018-04-29T12:31:55.463Z,22.30
2018-04-29T12:34:23.700Z,22.30
2018-04-29T12:36:51.999Z,22.10
2018-04-29T12:39:20.996Z,22.00
2018-04-29T12:41:50.137Z,21.80
2018-04-29T12:44:18.335Z,21.80
2018-04-29T12:46:47.362Z,21.40
2018-04-29T12:49:15.724Z,21.00
2018-04-29T12:51:44.713Z,20.70
2018-04-29T12:54:15.823Z,20.50
2018-04-29T12:56:45.543Z,20.00
2018-04-29T12:59:13.985Z,20.00
2018-04-29T13:01:42.781Z,19.60
2018-04-29T13:04:12.266Z,19.20
2018-04-29T13:06:41.364Z,19.10
2018-04-29T13:09:10.400Z,19.10
2018-04-29T13:11:39.239Z,19.00
2018-04-29T13:14:07.623Z,19.20
2018-04-29T13:16:35.956Z,19.30
2018-04-29T13:19:05.925Z,19.70
2018-04-29T13:21:34.990Z,19.90
2018-04-29T13:24:03.371Z,19.90
2018-04-29T13:26:31.796Z,19.90
2018-04-29T13:29:00.907Z,20.10
2018-04-29T13:31:29.464Z,20.00
2018-04-29T13:33:58.558Z,20.40
2018-04-29T13:36:26.832Z,20.30
2018-04-29T13:38:55.156Z,20.60
2018-04-29T13:41:23.761Z,20.70
2018-04-29T13:43:52.323Z,20.90
2018-04-29T13:46:20.592Z,20.80
2018-04-29T13:48:49.439Z,20.80
2018-04-29T13:51:18.044Z,20.70
2018-04-29T13:53:47.077Z,20.50
2018-04-29T13:56:15.343Z,20.50
2018-04-29T13:58:43.577Z,20.50
2018-04-29T14:01:12.286Z,20.50
2018-04-29T14:03:41.428Z,20.40
2018-04-29T14:06:09.763Z,20.40
2018-04-29T14:08:39.906Z,20.50
2018-04-29T14:11:08.932Z,20.50
2018-04-29T14:13:37.240Z,20.50
2018-04-29T14:16:06.403Z,20.90
2018-04-29T14:18:34.632Z,20.90
2018-04-29T14:21:02.888Z,20.90
2018-04-29T14:23:31.167Z,20.80
2018-04-29T14:25:59.443Z,20.90
2018-04-29T14:28:27.793Z,20.80
2018-04-29T14:30:56.101Z,20.80
2018-04-29T14:33:24.389Z,20.80
2018-04-29T14:35:54.161Z,21.10
2018-04-29T14:38:22.435Z,21.10
2018-04-29T14:40:50.771Z,21.10
2018-04-29T14:43:19.152Z,21.30
2018-04-29T14:45:47.300Z,21.70
2018-04-29T14:48:15.618Z,21.80
2018-04-29T14:50:44.634Z,21.90
2018-04-29T14:53:12.908Z,21.80
2018-04-29T14:55:41.220Z,21.80
2018-04-29T14:58:09.479Z,21.70
2018-04-29T15:00:38.786Z,21.70
2018-04-29T15:03:07.114Z,21.70
2018-04-29T15:05:35.376Z,21.70
2018-04-29T15:08:03.644Z,21.80
2018-04-29T15:10:31.886Z,21.80
2018-04-29T15:13:00.155Z,21.80
2018-04-29T15:15:28.434Z,21.70
2018-04-29T15:17:56.758Z,21.70
2018-04-29T15:20:25.016Z,21.90
2018-04-29T15:22:53.297Z,22.00
2018-04-29T15:25:21.554Z,22.30
2018-04-29T15:27:49.887Z,22.30
2018-04-29T15:30:18.961Z,22.60
2018-04-29T15:32:47.223Z,22.60
2018-04-29T15:35:15.624Z,22.60
2018-04-29T15:37:44.697Z,22.60
2018-04-29T15:40:12.941Z,22.60
2018-04-29T15:42:41.224Z,22.60
2018-04-29T15:45:09.478Z,22.50
2018-04-29T15:47:37.807Z,22.50
2018-04-29T15:50:06.059Z,22.30
2018-04-29T15:52:34.387Z,22.20
2018-04-29T15:55:03.426Z,22.20
2018-04-29T15:57:31.774Z,22.20
2018-04-29T16:00:00.039Z,22.20
2018-04-29T16:02:28.314Z,22.20
2018-04-29T16:04:57.874Z,22.10
2018-04-29T16:07:26.151Z,22.10
2018-04-29T16:09:54.474Z,22.20
2018-04-29T16:12:22.735Z,22.40
2018-04-29T16:14:51.958Z,22.60
2018-04-29T16:17:20.219Z,22.60
2018-04-29T16:19:48.499Z,22.70
2018-04-29T16:22:16.783Z,22.80
2018-04-29T16:24:45.084Z,22.80
2018-04-29T16:27:13.357Z,22.70
2018-04-29T16:29:42.433Z,22.60
2018-04-29T16:32:11.739Z,22.60
2018-04-29T16:34:40.889Z,22.70
2018-04-29T16:37:09.491Z,22.70
2018-04-29T16:39:37.981Z,22.70
2018-04-29T16:42:06.289Z,22.70
2018-04-29T16:44:35.893Z,22.50
2018-04-29T16:47:05.009Z,22.50
2018-04-29T16:49:34.081Z,22.40
2018-04-29T16:52:03.137Z,22.30
2018-04-29T16:54:31.873Z,22.20
2018-04-29T16:57:00.154Z,22.20
2018-04-29T16:59:28.493Z,22.10
2018-04-29T17:01:57.190Z,22.00
2018-04-29T17:04:25.908Z,21.90
2018-04-29T17:06:54.183Z,21.90
2018-04-29T17:09:22.601Z,21.90
2018-04-29T17:11:51.361Z,21.90
2018-04-29T17:14:19.640Z,21.80
2018-04-29T17:16:49.849Z,22.00
2018-04-29T17:19:18.167Z,22.00
2018-04-29T17:21:50.596Z,21.90
2018-04-29T17:24:23.978Z,21.90
2018-04-29T17:26:53.140Z,21.90
2018-04-29T17:29:21.474Z,21.90
2018-04-29T17:31:49.777Z,22.00
2018-04-29T17:34:18.435Z,22.00
2018-04-29T17:36:46.791Z,22.00
2018-04-29T17:39:16.105Z,21.80
2018-04-29T17:41:44.402Z,21.80
2018-04-29T17:44:13.678Z,21.70
2018-04-29T17:46:42.870Z,21.70
2018-04-29T17:49:11.408Z,21.60
2018-04-29T17:51:39.695Z,21.70
2018-04-29T17:54:09.694Z,21.60
2018-04-29T17:56:37.984Z,21.60
2018-04-29T17:59:07.774Z,21.50
2018-04-29T18:01:36.045Z,21.50
2018-04-29T18:04:05.108Z,21.40
2018-04-29T18:06:33.565Z,21.30
2018-04-29T18:09:02.625Z,21.00
2018-04-29T18:11:31.748Z,20.90
2018-04-29T18:14:00.088Z,20.90
2018-04-29T18:16:28.378Z,20.90
2018-04-29T18:18:56.637Z,20.80
2018-04-29T18:21:25.311Z,20.70
2018-04-29T18:23:53.891Z,20.60
2018-04-29T18:26:22.244Z,20.50
2018-04-29T18:28:50.583Z,20.50
2018-04-29T18:31:19.224Z,20.40
2018-04-29T18:33:47.514Z,20.40
2018-04-29T18:36:15.823Z,20.30
2018-04-29T18:38:44.102Z,20.20
2018-04-29T18:41:13.966Z,19.90
2018-04-29T18:43:42.260Z,19.90
2018-04-29T18:46:10.614Z,19.80
2018-04-29T18:48:39.703Z,19.60
2018-04-29T18:51:08.154Z,19.60
2018-04-29T18:53:36.795Z,19.40
2018-04-29T18:56:05.089Z,19.30
2018-04-29T18:58:33.492Z,19.20
2018-04-29T19:01:02.187Z,19.20
2018-04-29T19:03:30.752Z,19.20
2018-04-29T19:05:59.844Z,19.10
2018-04-29T19:08:28.159Z,19.10
2018-04-29T19:10:56.444Z,18.90
2018-04-29T19:13:25.628Z,18.80
2018-04-29T19:15:53.911Z,18.80
2018-04-29T19:18:22.298Z,18.70
2018-04-29T19:20:51.397Z,18.30
2018-04-29T19:23:20.508Z,18.20
2018-04-29T19:26:03.744Z,18.20
2018-04-29T19:28:32.195Z,18.20
2018-04-29T19:31:01.298Z,18.20
2018-04-29T19:33:29.642Z,18.20
2018-04-29T19:35:58.085Z,18.20
2018-04-29T19:38:28.228Z,18.20
2018-04-29T19:40:57.977Z,18.10
2018-04-29T19:43:26.960Z,17.90
2018-04-29T19:45:55.737Z,17.80
2018-04-29T19:48:25.458Z,17.80
2018-04-29T19:50:53.924Z,17.70
2018-04-29T19:53:23.609Z,17.60
2018-04-29T19:55:51.997Z,17.50
2018-04-29T19:58:22.479Z,17.50
2018-04-29T20:00:51.634Z,17.40
2018-04-29T20:03:20.587Z,17.40
2018-04-29T20:05:49.963Z,17.30
2018-04-29T20:08:20.080Z,17.30
2018-04-29T20:10:49.706Z,17.20
2018-04-29T20:13:19.614Z,17.10
2018-04-29T20:15:50.654Z,17.10
2018-04-29T20:18:18.977Z,17.10
2018-04-29T20:20:47.668Z,16.90
2018-04-29T20:23:16.690Z,16.60
2018-04-29T20:25:44.986Z,16.60
2018-04-29T20:28:13.306Z,16.50
2018-04-29T20:30:41.663Z,16.50
2018-04-29T20:33:09.950Z,16.30
2018-04-29T20:35:39.334Z,16.20
2018-04-29T20:38:07.671Z,16.20
2018-04-29T20:40:36.690Z,16.20
2018-04-29T20:43:04.971Z,16.20
2018-04-29T20:45:33.595Z,16.20
2018-04-29T20:48:02.776Z,16.10
2018-04-29T20:50:31.025Z,16.10
2018-04-29T20:52:59.713Z,16.10
2018-04-29T20:55:28.004Z,16.00
2018-04-29T20:57:56.685Z,16.00
2018-04-29T21:00:24.982Z,15.90
2018-04-29T21:02:53.325Z,15.90
2018-04-29T21:05:21.595Z,15.80
2018-04-29T21:07:50.893Z,15.60
2018-04-29T21:10:20.758Z,15.50
2018-04-29T21:12:49.454Z,15.50
2018-04-29T21:15:17.702Z,15.50
2018-04-29T21:17:46.760Z,15.40
2018-04-29T21:20:15.122Z,15.20
2018-04-29T21:22:48.282Z,15.10
2018-04-29T21:25:16.636Z,15.10
2018-04-29T21:27:44.965Z,15.00
2018-04-29T21:30:13.250Z,15.00
2018-04-29T21:32:41.548Z,15.00
2018-04-29T21:35:10.185Z,15.00
2018-04-29T21:37:38.828Z,15.00
2018-04-29T21:40:07.192Z,15.00
2018-04-29T21:42:35.752Z,14.90
2018-04-29T21:45:04.891Z,14.80
2018-04-29T21:47:33.194Z,14.80
2018-04-29T21:50:01.433Z,14.80
2018-04-29T21:52:29.731Z,14.70
2018-04-29T21:54:58.039Z,14.70
2018-04-29T21:57:27.252Z,14.70
2018-04-29T21:59:55.546Z,14.70
2018-04-29T22:02:24.556Z,14.60
2018-04-29T22:04:52.838Z,14.60
2018-04-29T22:07:21.119Z,14.60
2018-04-29T22:09:49.542Z,14.80
2018-04-29T22:12:17.775Z,15.20
2018-04-29T22:14:46.797Z,15.70
2018-04-29T22:17:15.055Z,15.70
2018-04-29T22:19:43.329Z,16.00
2018-04-29T22:22:11.573Z,16.30
2018-04-29T22:24:40.631Z,16.60
2018-04-29T22:27:08.945Z,16.60
2018-04-29T22:29:37.195Z,16.80
2018-04-29T22:32:05.444Z,16.90
2018-04-29T22:34:33.729Z,17.00
2018-04-29T22:37:02.033Z,17.10
2018-04-29T22:39:30.985Z,17.30
2018-04-29T22:41:59.239Z,17.20
2018-04-29T22:44:28.599Z,17.40
2018-04-29T22:46:56.858Z,17.30
2018-04-29T22:49:25.131Z,17.40
2018-04-29T22:51:53.405Z,17.40
2018-04-29T22:54:21.691Z,17.50
2018-04-29T22:56:49.991Z,17.60
2018-04-29T22:59:18.265Z,17.60
2018-04-29T23:01:47.305Z,17.80
2018-04-29T23:04:15.593Z,17.80
2018-04-29T23:06:43.833Z,17.80
2018-04-29T23:09:12.874Z,17.80
2018-04-29T23:11:41.155Z,17.80
2018-04-29T23:14:10.380Z,17.90
2018-04-29T23:16:38.710Z,17.90
2018-04-29T23:19:07.098Z,17.90
2018-04-29T23:21:35.390Z,17.90
2018-04-29T23:24:03.679Z,17.90
2018-04-29T23:26:31.973Z,18.00
2018-04-29T23:29:00.301Z,18.00
2018-04-29T23:31:28.583Z,18.00
2018-04-29T23:33:56.829Z,18.00
2018-04-29T23:36:25.097Z,18.10
2018-04-29T23:38:54.264Z,17.90
2018-04-29T23:41:22.620Z,17.90
2018-04-29T23:43:50.892Z,17.70
2018-04-29T23:46:19.924Z,17.50
2018-04-29T23:48:48.206Z,17.50
2018-04-29T23:51:16.491Z,17.40
2018-04-29T23:53:44.717Z,17.40
2018-04-29T23:56:13.005Z,17.30
2018-04-29T23:58:42.041Z,17.30
